sensor_id;sensor_type;location;lat;lon;timestamp;pressure;altitude;pressure_sealevel;temperature;humidity
54554;BME280;40450;55.848;-3.572;2022-10-04T00:01:04;98831.55;;;10.61;100.00
54554;BME280;40450;55.848;-3.572;2022-10-04T00:03:28;98820.56;;;10.45;100.00
54554;BME280;40450;55.848;-3.572;2022-10-04T00:05:57;98809.09;;;10.94;100.00
54554;BME280;40450;55.848;-3.572;2022-10-04T00:08:31;98809.60;;;10.64;100.00
54554;BME280;40450;55.848;-3.572;2022-10-04T00:11:03;98814.03;;;10.09;100.00
54554;BME280;40450;55.848;-3.572;2022-10-04T00:13:28;98799.55;;;9.71;100.00
54554;BME280;40450;55.848;-3.572;2022-10-04T00:15:56;98797.93;;;9.94;100.00
54554;BME280;40450;55.848;-3.572;2022-10-04T00:18:30;98784.21;;;10.12;100.00
54554;BME280;40450;55.848;-3.572;2022-10-04T00:21:01;98771.93;;;9.95;100.00
54554;BME280;40450;55.848;-3.572;2022-10-04T00:26:00;98771.22;;;9.71;100.00
54554;BME280;40450;55.848;-3.572;2022-10-04T00:33:34;98778.33;;;9.53;100.00
54554;BME280;40450;55.848;-3.572;2022-10-04T00:35:59;98768.10;;;9.52;100.00
54554;BME280;40450;55.848;-3.572;2022-10-04T00:38:29;98764.53;;;9.61;100.00
54554;BME280;40450;55.848;-3.572;2022-10-04T00:41:02;98752.02;;;9.96;100.00
54554;BME280;40450;55.848;-3.572;2022-10-04T00:43:35;98743.85;;;9.98;100.00
54554;BME280;40450;55.848;-3.572;2022-10-04T00:46:03;98765.33;;;10.06;100.00
54554;BME280;40450;55.848;-3.572;2022-10-04T00:48:36;98757.35;;;9.91;100.00
54554;BME280;40450;55.848;-3.572;2022-10-04T00:51:08;98748.25;;;10.37;100.00
54554;BME280;40450;55.848;-3.572;2022-10-04T00:53:40;98755.18;;;9.98;100.00
54554;BME280;40450;55.848;-3.572;2022-10-04T00:56:05;98747.89;;;10.38;100.00
54554;BME280;40450;55.848;-3.572;2022-10-04T00:58:37;98739.18;;;10.83;100.00
54554;BME280;40450;55.848;-3.572;2022-10-04T01:01:03;98722.06;;;10.56;100.00
54554;BME280;40450;55.848;-3.572;2022-10-04T01:03:35;98717.80;;;10.46;100.00
54554;BME280;40450;55.848;-3.572;2022-10-04T01:06:05;98715.05;;;10.85;100.00
54554;BME280;40450;55.848;-3.572;2022-10-04T01:08:37;98707.82;;;10.57;100.00
54554;BME280;40450;55.848;-3.572;2022-10-04T01:11:08;98716.82;;;10.16;100.00
54554;BME280;40450;55.848;-3.572;2022-10-04T01:13:38;98715.55;;;10.00;100.00
54554;BME280;40450;55.848;-3.572;2022-10-04T01:16:12;98713.17;;;10.25;100.00
54554;BME280;40450;55.848;-3.572;2022-10-04T01:18:36;98706.89;;;10.25;100.00
54554;BME280;40450;55.848;-3.572;2022-10-04T01:21:08;98692.41;;;10.43;100.00
54554;BME280;40450;55.848;-3.572;2022-10-04T01:23:39;98679.75;;;9.86;100.00
54554;BME280;40450;55.848;-3.572;2022-10-04T01:28:37;98682.66;;;10.08;100.00
54554;BME280;40450;55.848;-3.572;2022-10-04T01:31:07;98658.44;;;10.54;100.00
54554;BME280;40450;55.848;-3.572;2022-10-04T01:33:38;98648.15;;;10.50;100.00
54554;BME280;40450;55.848;-3.572;2022-10-04T01:36:08;98662.92;;;10.86;100.00
54554;BME280;40450;55.848;-3.572;2022-10-04T01:38:41;98657.73;;;10.54;100.00
54554;BME280;40450;55.848;-3.572;2022-10-04T01:41:09;98666.97;;;10.49;100.00
54554;BME280;40450;55.848;-3.572;2022-10-04T01:43:42;98657.98;;;10.79;100.00
54554;BME280;40450;55.848;-3.572;2022-10-04T01:46:12;98634.86;;;10.86;100.00
54554;BME280;40450;55.848;-3.572;2022-10-04T01:48:42;98630.73;;;11.03;100.00
54554;BME280;40450;55.848;-3.572;2022-10-04T01:51:15;98630.42;;;11.13;100.00
54554;BME280;40450;55.848;-3.572;2022-10-04T01:53:46;98636.93;;;10.18;100.00
54554;BME280;40450;55.848;-3.572;2022-10-04T01:56:14;98625.88;;;10.25;100.00
54554;BME280;40450;55.848;-3.572;2022-10-04T01:58:45;98623.51;;;10.34;100.00
54554;BME280;40450;55.848;-3.572;2022-10-04T02:01:15;98619.20;;;10.22;100.00
54554;BME280;40450;55.848;-3.572;2022-10-04T02:03:45;98608.04;;;10.83;100.00
54554;BME280;40450;55.848;-3.572;2022-10-04T02:06:14;98607.36;;;10.89;100.00
54554;BME280;40450;55.848;-3.572;2022-10-04T02:08:46;98607.74;;;11.20;100.00
54554;BME280;40450;55.848;-3.572;2022-10-04T02:11:16;98610.47;;;11.10;100.00
54554;BME280;40450;55.848;-3.572;2022-10-04T02:13:44;98604.84;;;11.09;100.00
54554;BME280;40450;55.848;-3.572;2022-10-04T02:16:14;98605.75;;;10.43;100.00
54554;BME280;40450;55.848;-3.572;2022-10-04T02:18:45;98608.49;;;11.07;100.00
54554;BME280;40450;55.848;-3.572;2022-10-04T02:21:16;98610.43;;;11.00;100.00
54554;BME280;40450;55.848;-3.572;2022-10-04T02:23:46;98601.22;;;10.89;100.00
54554;BME280;40450;55.848;-3.572;2022-10-04T02:26:15;98594.13;;;10.55;100.00
54554;BME280;40450;55.848;-3.572;2022-10-04T02:28:47;98592.78;;;10.80;100.00
54554;BME280;40450;55.848;-3.572;2022-10-04T02:31:19;98588.96;;;11.30;100.00
54554;BME280;40450;55.848;-3.572;2022-10-04T02:33:49;98586.90;;;11.66;100.00
54554;BME280;40450;55.848;-3.572;2022-10-04T02:36:17;98573.34;;;11.53;100.00
54554;BME280;40450;55.848;-3.572;2022-10-04T02:38:53;98553.51;;;12.05;100.00
54554;BME280;40450;55.848;-3.572;2022-10-04T02:41:23;98540.42;;;11.26;100.00
54554;BME280;40450;55.848;-3.572;2022-10-04T02:43:51;98529.87;;;11.06;100.00
54554;BME280;40450;55.848;-3.572;2022-10-04T02:46:24;98532.23;;;11.03;100.00
54554;BME280;40450;55.848;-3.572;2022-10-04T02:48:52;98538.08;;;11.48;100.00
54554;BME280;40450;55.848;-3.572;2022-10-04T02:51:24;98520.13;;;11.68;100.00
54554;BME280;40450;55.848;-3.572;2022-10-04T02:53:55;98530.89;;;11.22;100.00
54554;BME280;40450;55.848;-3.572;2022-10-04T02:56:20;98519.74;;;11.20;100.00
54554;BME280;40450;55.848;-3.572;2022-10-04T02:58:50;98497.55;;;11.13;100.00
54554;BME280;40450;55.848;-3.572;2022-10-04T03:01:25;98493.68;;;10.90;100.00
54554;BME280;40450;55.848;-3.572;2022-10-04T03:03:50;98499.78;;;10.58;100.00
54554;BME280;40450;55.848;-3.572;2022-10-04T03:06:22;98504.10;;;11.29;100.00
54554;BME280;40450;55.848;-3.572;2022-10-04T03:08:54;98507.43;;;10.98;100.00
54554;BME280;40450;55.848;-3.572;2022-10-04T03:11:23;98507.54;;;11.00;100.00
54554;BME280;40450;55.848;-3.572;2022-10-04T03:13:54;98498.29;;;11.32;100.00
54554;BME280;40450;55.848;-3.572;2022-10-04T03:16:22;98491.72;;;11.39;100.00
54554;BME280;40450;55.848;-3.572;2022-10-04T03:18:55;98482.33;;;11.38;100.00
54554;BME280;40450;55.848;-3.572;2022-10-04T03:21:24;98481.29;;;11.13;100.00
54554;BME280;40450;55.848;-3.572;2022-10-04T03:23:53;98479.52;;;11.15;100.00
54554;BME280;40450;55.848;-3.572;2022-10-04T03:26:28;98474.01;;;11.44;100.00
54554;BME280;40450;55.848;-3.572;2022-10-04T03:28:54;98462.11;;;10.54;100.00
54554;BME280;40450;55.848;-3.572;2022-10-04T03:31:25;98462.76;;;10.11;100.00
54554;BME280;40450;55.848;-3.572;2022-10-04T03:33:55;98457.94;;;10.50;100.00
54554;BME280;40450;55.848;-3.572;2022-10-04T03:36:26;98457.80;;;10.00;100.00
54554;BME280;40450;55.848;-3.572;2022-10-04T03:38:56;98461.11;;;11.07;100.00
54554;BME280;40450;55.848;-3.572;2022-10-04T03:41:25;98457.15;;;11.11;100.00
54554;BME280;40450;55.848;-3.572;2022-10-04T03:43:56;98439.16;;;11.14;100.00
54554;BME280;40450;55.848;-3.572;2022-10-04T03:46:26;98442.12;;;11.00;100.00
54554;BME280;40450;55.848;-3.572;2022-10-04T03:48:57;98442.49;;;10.80;100.00
54554;BME280;40450;55.848;-3.572;2022-10-04T03:51:27;98458.30;;;11.00;100.00
54554;BME280;40450;55.848;-3.572;2022-10-04T03:53:59;98437.29;;;10.62;100.00
54554;BME280;40450;55.848;-3.572;2022-10-04T03:56:30;98443.08;;;11.02;100.00
54554;BME280;40450;55.848;-3.572;2022-10-04T03:59:01;98432.43;;;10.87;100.00
54554;BME280;40450;55.848;-3.572;2022-10-04T04:01:36;98437.01;;;11.21;100.00
54554;BME280;40450;55.848;-3.572;2022-10-04T04:04:04;98433.39;;;11.38;100.00
54554;BME280;40450;55.848;-3.572;2022-10-04T04:06:36;98427.46;;;11.47;100.00
54554;BME280;40450;55.848;-3.572;2022-10-04T04:09:00;98431.16;;;11.08;100.00
54554;BME280;40450;55.848;-3.572;2022-10-04T04:11:30;98436.65;;;11.34;100.00
54554;BME280;40450;55.848;-3.572;2022-10-04T04:14:03;98427.40;;;11.31;100.00
54554;BME280;40450;55.848;-3.572;2022-10-04T04:16:31;98421.09;;;11.72;100.00
54554;BME280;40450;55.848;-3.572;2022-10-04T04:19:03;98422.73;;;11.28;100.00
54554;BME280;40450;55.848;-3.572;2022-10-04T04:21:32;98415.18;;;10.97;100.00
54554;BME280;40450;55.848;-3.572;2022-10-04T04:24:03;98416.68;;;10.92;100.00
54554;BME280;40450;55.848;-3.572;2022-10-04T04:26:35;98393.94;;;11.05;100.00
54554;BME280;40450;55.848;-3.572;2022-10-04T04:29:06;98394.66;;;11.08;100.00
54554;BME280;40450;55.848;-3.572;2022-10-04T04:31:37;98401.94;;;10.63;100.00
54554;BME280;40450;55.848;-3.572;2022-10-04T04:34:04;98392.49;;;10.97;100.00
54554;BME280;40450;55.848;-3.572;2022-10-04T04:36:39;98377.62;;;11.46;100.00
54554;BME280;40450;55.848;-3.572;2022-10-04T04:39:08;98364.00;;;11.50;100.00
54554;BME280;40450;55.848;-3.572;2022-10-04T04:41:33;98365.46;;;10.96;100.00
54554;BME280;40450;55.848;-3.572;2022-10-04T04:44:13;98364.20;;;11.11;100.00
54554;BME280;40450;55.848;-3.572;2022-10-04T04:46:37;98362.21;;;10.90;100.00
54554;BME280;40450;55.848;-3.572;2022-10-04T04:49:05;98354.37;;;11.08;100.00
54554;BME280;40450;55.848;-3.572;2022-10-04T04:51:36;98352.28;;;10.71;100.00
54554;BME280;40450;55.848;-3.572;2022-10-04T04:54:06;98361.47;;;10.40;100.00
54554;BME280;40450;55.848;-3.572;2022-10-04T04:56:36;98351.80;;;10.98;100.00
54554;BME280;40450;55.848;-3.572;2022-10-04T04:59:06;98349.54;;;11.09;100.00
54554;BME280;40450;55.848;-3.572;2022-10-04T05:01:42;98338.68;;;11.30;100.00
54554;BME280;40450;55.848;-3.572;2022-10-04T05:04:15;98345.22;;;11.50;100.00
54554;BME280;40450;55.848;-3.572;2022-10-04T05:06:38;98329.18;;;11.26;100.00
54554;BME280;40450;55.848;-3.572;2022-10-04T05:11:38;98333.49;;;11.14;100.00
54554;BME280;40450;55.848;-3.572;2022-10-04T05:14:10;98337.26;;;11.33;100.00
54554;BME280;40450;55.848;-3.572;2022-10-04T05:16:41;98322.79;;;11.48;100.00
54554;BME280;40450;55.848;-3.572;2022-10-04T05:19:13;98334.57;;;11.18;100.00
54554;BME280;40450;55.848;-3.572;2022-10-04T05:21:42;98319.59;;;11.12;100.00
54554;BME280;40450;55.848;-3.572;2022-10-04T05:24:11;98312.79;;;10.74;100.00
54554;BME280;40450;55.848;-3.572;2022-10-04T05:26:40;98313.71;;;11.31;100.00
54554;BME280;40450;55.848;-3.572;2022-10-04T05:29:14;98314.66;;;10.78;100.00
54554;BME280;40450;55.848;-3.572;2022-10-04T05:31:45;98321.19;;;10.84;100.00
54554;BME280;40450;55.848;-3.572;2022-10-04T05:34:18;98325.17;;;11.12;100.00
54554;BME280;40450;55.848;-3.572;2022-10-04T05:36:49;98316.77;;;11.07;100.00
54554;BME280;40450;55.848;-3.572;2022-10-04T05:39:19;98321.25;;;10.67;100.00
54554;BME280;40450;55.848;-3.572;2022-10-04T05:41:48;98316.59;;;10.34;100.00
54554;BME280;40450;55.848;-3.572;2022-10-04T05:44:18;98324.75;;;10.41;100.00
54554;BME280;40450;55.848;-3.572;2022-10-04T05:46:42;98326.10;;;10.67;100.00
54554;BME280;40450;55.848;-3.572;2022-10-04T05:49:13;98319.84;;;10.53;100.00
54554;BME280;40450;55.848;-3.572;2022-10-04T05:51:48;98335.30;;;10.54;100.00
54554;BME280;40450;55.848;-3.572;2022-10-04T05:54:19;98321.61;;;10.33;100.00
54554;BME280;40450;55.848;-3.572;2022-10-04T05:56:53;98319.30;;;10.60;100.00
54554;BME280;40450;55.848;-3.572;2022-10-04T05:59:28;98310.72;;;10.51;100.00
54554;BME280;40450;55.848;-3.572;2022-10-04T06:01:50;98302.95;;;10.37;100.00
54554;BME280;40450;55.848;-3.572;2022-10-04T06:04:23;98308.03;;;10.69;100.00
54554;BME280;40450;55.848;-3.572;2022-10-04T06:06:48;98293.15;;;10.44;100.00
54554;BME280;40450;55.848;-3.572;2022-10-04T06:09:27;98279.05;;;10.88;100.00
54554;BME280;40450;55.848;-3.572;2022-10-04T06:11:55;98288.95;;;10.43;100.00
54554;BME280;40450;55.848;-3.572;2022-10-04T06:14:25;98288.23;;;11.10;100.00
54554;BME280;40450;55.848;-3.572;2022-10-04T06:16:57;98287.88;;;11.62;100.00
54554;BME280;40450;55.848;-3.572;2022-10-04T06:19:29;98290.17;;;11.29;100.00
54554;BME280;40450;55.848;-3.572;2022-10-04T06:21:59;98282.95;;;11.40;100.00
54554;BME280;40450;55.848;-3.572;2022-10-04T06:24:19;98278.32;;;11.85;100.00
54554;BME280;40450;55.848;-3.572;2022-10-04T06:26:49;98277.66;;;11.34;100.00
54554;BME280;40450;55.848;-3.572;2022-10-04T06:29:20;98297.84;;;11.37;100.00
54554;BME280;40450;55.848;-3.572;2022-10-04T06:34:34;98286.13;;;11.18;100.00
54554;BME280;40450;55.848;-3.572;2022-10-04T06:42:05;98284.02;;;11.38;100.00
54554;BME280;40450;55.848;-3.572;2022-10-04T06:44:29;98288.80;;;11.79;100.00
54554;BME280;40450;55.848;-3.572;2022-10-04T06:46:58;98287.27;;;11.59;100.00
54554;BME280;40450;55.848;-3.572;2022-10-04T06:49:29;98290.52;;;11.42;100.00
54554;BME280;40450;55.848;-3.572;2022-10-04T06:52:05;98281.83;;;11.19;100.00
54554;BME280;40450;55.848;-3.572;2022-10-04T06:54:41;98286.38;;;11.20;100.00
54554;BME280;40450;55.848;-3.572;2022-10-04T06:59:35;98285.42;;;11.23;100.00
54554;BME280;40450;55.848;-3.572;2022-10-04T07:01:55;98288.62;;;11.64;100.00
54554;BME280;40450;55.848;-3.572;2022-10-04T07:04:30;98276.50;;;11.39;100.00
54554;BME280;40450;55.848;-3.572;2022-10-04T07:07:06;98286.38;;;11.02;100.00
54554;BME280;40450;55.848;-3.572;2022-10-04T07:09:25;98271.86;;;11.28;100.00
54554;BME280;40450;55.848;-3.572;2022-10-04T07:12:00;98275.76;;;11.06;100.00
54554;BME280;40450;55.848;-3.572;2022-10-04T07:14:28;98281.26;;;10.86;100.00
54554;BME280;40450;55.848;-3.572;2022-10-04T07:17:00;98274.75;;;11.19;100.00
54554;BME280;40450;55.848;-3.572;2022-10-04T07:19:32;98273.78;;;11.23;100.00
54554;BME280;40450;55.848;-3.572;2022-10-04T07:22:03;98268.90;;;11.33;100.00
54554;BME280;40450;55.848;-3.572;2022-10-04T07:24:36;98281.92;;;11.42;100.00
54554;BME280;40450;55.848;-3.572;2022-10-04T07:26:56;98276.28;;;11.77;100.00
54554;BME280;40450;55.848;-3.572;2022-10-04T07:29:28;98274.98;;;11.17;100.00
54554;BME280;40450;55.848;-3.572;2022-10-04T07:32:04;98280.64;;;11.03;100.00
54554;BME280;40450;55.848;-3.572;2022-10-04T07:34:29;98282.78;;;10.71;100.00
54554;BME280;40450;55.848;-3.572;2022-10-04T07:36:59;98287.17;;;11.18;100.00
54554;BME280;40450;55.848;-3.572;2022-10-04T07:39:30;98278.70;;;11.13;100.00
54554;BME280;40450;55.848;-3.572;2022-10-04T07:42:08;98279.95;;;10.74;100.00
54554;BME280;40450;55.848;-3.572;2022-10-04T07:44:34;98283.94;;;10.73;100.00
54554;BME280;40450;55.848;-3.572;2022-10-04T07:47:02;98277.40;;;11.06;100.00
54554;BME280;40450;55.848;-3.572;2022-10-04T07:49:36;98290.76;;;11.02;100.00
54554;BME280;40450;55.848;-3.572;2022-10-04T07:54:37;98282.94;;;11.12;100.00
54554;BME280;40450;55.848;-3.572;2022-10-04T07:57:05;98303.94;;;11.36;100.00
54554;BME280;40450;55.848;-3.572;2022-10-04T07:59:39;98284.22;;;11.35;100.00
54554;BME280;40450;55.848;-3.572;2022-10-04T08:02:12;98284.80;;;11.62;100.00
54554;BME280;40450;55.848;-3.572;2022-10-04T08:04:37;98279.34;;;11.84;100.00
54554;BME280;40450;55.848;-3.572;2022-10-04T08:07:09;98290.13;;;11.62;100.00
54554;BME280;40450;55.848;-3.572;2022-10-04T08:09:41;98287.98;;;11.67;100.00
54554;BME280;40450;55.848;-3.572;2022-10-04T08:12:10;98286.99;;;11.73;100.00
54554;BME280;40450;55.848;-3.572;2022-10-04T08:14:44;98284.97;;;11.76;100.00
54554;BME280;40450;55.848;-3.572;2022-10-04T08:17:14;98283.05;;;11.38;100.00
54554;BME280;40450;55.848;-3.572;2022-10-04T08:19:44;98270.07;;;11.54;100.00
54554;BME280;40450;55.848;-3.572;2022-10-04T08:22:12;98257.28;;;11.40;100.00
54554;BME280;40450;55.848;-3.572;2022-10-04T08:24:38;98254.62;;;11.46;100.00
54554;BME280;40450;55.848;-3.572;2022-10-04T08:27:20;98209.25;;;11.93;100.00
54554;BME280;40450;55.848;-3.572;2022-10-04T08:29:47;98197.04;;;11.93;100.00
54554;BME280;40450;55.848;-3.572;2022-10-04T08:32:16;98193.98;;;11.55;100.00
54554;BME280;40450;55.848;-3.572;2022-10-04T08:34:44;98214.88;;;11.50;100.00
54554;BME280;40450;55.848;-3.572;2022-10-04T08:37:13;98221.29;;;11.29;100.00
54554;BME280;40450;55.848;-3.572;2022-10-04T08:39:49;98252.45;;;11.07;100.00
54554;BME280;40450;55.848;-3.572;2022-10-04T08:42:21;98253.92;;;11.08;100.00
54554;BME280;40450;55.848;-3.572;2022-10-04T08:57:22;98230.60;;;12.25;100.00
54554;BME280;40450;55.848;-3.572;2022-10-04T09:17:19;98233.67;;;11.75;100.00
54554;BME280;40450;55.848;-3.572;2022-10-04T09:19:52;98248.89;;;12.41;100.00
54554;BME280;40450;55.848;-3.572;2022-10-04T09:22:17;98259.50;;;12.75;100.00
54554;BME280;40450;55.848;-3.572;2022-10-04T09:27:26;98247.71;;;12.33;100.00
54554;BME280;40450;55.848;-3.572;2022-10-04T09:29:57;98243.03;;;12.47;100.00
54554;BME280;40450;55.848;-3.572;2022-10-04T09:32:25;98230.08;;;12.80;100.00
54554;BME280;40450;55.848;-3.572;2022-10-04T09:34:51;98221.58;;;12.27;100.00
54554;BME280;40450;55.848;-3.572;2022-10-04T09:37:24;98222.93;;;12.06;100.00
54554;BME280;40450;55.848;-3.572;2022-10-04T09:42:28;98209.31;;;12.19;100.00
54554;BME280;40450;55.848;-3.572;2022-10-04T09:52:28;98228.04;;;12.30;100.00
54554;BME280;40450;55.848;-3.572;2022-10-04T09:54:59;98233.72;;;12.44;100.00
54554;BME280;40450;55.848;-3.572;2022-10-04T09:57:25;98236.01;;;12.18;100.00
54554;BME280;40450;55.848;-3.572;2022-10-04T09:59:57;98245.85;;;12.29;100.00
54554;BME280;40450;55.848;-3.572;2022-10-04T10:05:05;98246.20;;;12.35;100.00
54554;BME280;40450;55.848;-3.572;2022-10-04T10:07:29;98244.75;;;12.06;100.00
54554;BME280;40450;55.848;-3.572;2022-10-04T10:09:55;98250.31;;;12.78;100.00
54554;BME280;40450;55.848;-3.572;2022-10-04T10:12:29;98247.49;;;12.33;100.00
54554;BME280;40450;55.848;-3.572;2022-10-04T10:14:57;98247.81;;;12.89;100.00
54554;BME280;40450;55.848;-3.572;2022-10-04T10:17:25;98247.06;;;12.87;100.00
54554;BME280;40450;55.848;-3.572;2022-10-04T10:24:59;98247.36;;;12.82;100.00
54554;BME280;40450;55.848;-3.572;2022-10-04T10:32:31;98246.50;;;12.91;100.00
54554;BME280;40450;55.848;-3.572;2022-10-04T10:35:00;98252.59;;;13.17;100.00
54554;BME280;40450;55.848;-3.572;2022-10-04T10:37:30;98256.89;;;13.27;100.00
54554;BME280;40450;55.848;-3.572;2022-10-04T10:40:11;98260.26;;;13.57;100.00
54554;BME280;40450;55.848;-3.572;2022-10-04T10:42:35;98260.32;;;13.59;100.00
54554;BME280;40450;55.848;-3.572;2022-10-04T10:47:33;98264.12;;;14.16;99.70
54554;BME280;40450;55.848;-3.572;2022-10-04T10:50:02;98260.04;;;14.05;99.75
54554;BME280;40450;55.848;-3.572;2022-10-04T10:57:39;98255.98;;;15.44;97.24
54554;BME280;40450;55.848;-3.572;2022-10-04T11:02:36;98264.88;;;16.16;95.50
54554;BME280;40450;55.848;-3.572;2022-10-04T11:05:08;98267.84;;;15.78;94.61
54554;BME280;40450;55.848;-3.572;2022-10-04T11:07:34;98254.23;;;16.04;94.90
54554;BME280;40450;55.848;-3.572;2022-10-04T11:10:06;98259.74;;;16.11;93.42
54554;BME280;40450;55.848;-3.572;2022-10-04T11:12:38;98262.36;;;16.78;92.23
54554;BME280;40450;55.848;-3.572;2022-10-04T11:27:39;98257.78;;;17.57;89.40
54554;BME280;40450;55.848;-3.572;2022-10-04T11:30:08;98257.36;;;17.09;89.62
54554;BME280;40450;55.848;-3.572;2022-10-04T11:37:41;98297.69;;;16.12;91.49
54554;BME280;40450;55.848;-3.572;2022-10-04T11:40:09;98306.28;;;15.49;92.73
54554;BME280;40450;55.848;-3.572;2022-10-04T11:42:42;98307.49;;;15.14;93.31
54554;BME280;40450;55.848;-3.572;2022-10-04T11:45:16;98288.12;;;15.61;92.82
54554;BME280;40450;55.848;-3.572;2022-10-04T11:47:40;98296.45;;;15.38;92.11
54554;BME280;40450;55.848;-3.572;2022-10-04T11:57:36;98315.44;;;13.81;95.07
54554;BME280;40450;55.848;-3.572;2022-10-04T12:00:09;98326.45;;;10.82;100.00
54554;BME280;40450;55.848;-3.572;2022-10-04T12:02:45;98316.36;;;11.60;99.50
54554;BME280;40450;55.848;-3.572;2022-10-04T12:07:41;98322.93;;;13.28;95.81
54554;BME280;40450;55.848;-3.572;2022-10-04T12:10:13;98316.28;;;13.17;95.43
54554;BME280;40450;55.848;-3.572;2022-10-04T12:12:48;98319.88;;;14.19;92.50
54554;BME280;40450;55.848;-3.572;2022-10-04T12:15:18;98330.86;;;14.64;91.31
54554;BME280;40450;55.848;-3.572;2022-10-04T12:17:43;98334.89;;;15.89;88.05
54554;BME280;40450;55.848;-3.572;2022-10-04T12:22:48;98344.76;;;15.58;88.78
54554;BME280;40450;55.848;-3.572;2022-10-04T12:27:44;98368.39;;;15.04;89.23
54554;BME280;40450;55.848;-3.572;2022-10-04T12:32:41;98370.12;;;14.36;89.65
54554;BME280;40450;55.848;-3.572;2022-10-04T12:37:58;98372.72;;;14.53;89.69
54554;BME280;40450;55.848;-3.572;2022-10-04T12:40:15;98370.89;;;14.62;89.60
54554;BME280;40450;55.848;-3.572;2022-10-04T12:42:43;98373.95;;;14.83;89.47
54554;BME280;40450;55.848;-3.572;2022-10-04T12:45:17;98380.70;;;14.69;89.59
54554;BME280;40450;55.848;-3.572;2022-10-04T12:47:50;98374.97;;;15.57;87.91
54554;BME280;40450;55.848;-3.572;2022-10-04T12:50:15;98381.90;;;15.57;86.70
54554;BME280;40450;55.848;-3.572;2022-10-04T12:52:43;98395.07;;;14.57;89.53
54554;BME280;40450;55.848;-3.572;2022-10-04T12:55:17;98392.54;;;14.67;90.11
54554;BME280;40450;55.848;-3.572;2022-10-04T12:57:44;98391.61;;;14.70;89.10
54554;BME280;40450;55.848;-3.572;2022-10-04T13:00:15;98396.79;;;14.28;90.54
54554;BME280;40450;55.848;-3.572;2022-10-04T13:02:50;98390.60;;;14.44;89.95
54554;BME280;40450;55.848;-3.572;2022-10-04T13:05:15;98383.64;;;14.32;90.81
54554;BME280;40450;55.848;-3.572;2022-10-04T13:10:22;98389.32;;;14.67;90.32
54554;BME280;40450;55.848;-3.572;2022-10-04T13:15:19;98399.02;;;15.28;88.22
54554;BME280;40450;55.848;-3.572;2022-10-04T13:17:47;98389.31;;;15.83;87.67
54554;BME280;40450;55.848;-3.572;2022-10-04T13:20:21;98381.96;;;15.92;87.11
54554;BME280;40450;55.848;-3.572;2022-10-04T13:22:46;98379.93;;;16.04;86.65
54554;BME280;40450;55.848;-3.572;2022-10-04T13:25:21;98385.47;;;16.45;85.51
54554;BME280;40450;55.848;-3.572;2022-10-04T13:27:46;98393.81;;;15.77;85.79
54554;BME280;40450;55.848;-3.572;2022-10-04T13:30:19;98411.82;;;14.76;89.08
54554;BME280;40450;55.848;-3.572;2022-10-04T13:32:50;98413.92;;;15.58;87.31
54554;BME280;40450;55.848;-3.572;2022-10-04T13:35:19;98399.37;;;15.84;86.59
54554;BME280;40450;55.848;-3.572;2022-10-04T13:37:53;98413.36;;;15.26;88.30
54554;BME280;40450;55.848;-3.572;2022-10-04T13:40:24;98413.37;;;14.03;92.12
54554;BME280;40450;55.848;-3.572;2022-10-04T13:42:57;98408.56;;;14.55;90.14
54554;BME280;40450;55.848;-3.572;2022-10-04T13:45:22;98402.53;;;15.51;88.58
54554;BME280;40450;55.848;-3.572;2022-10-04T13:47:59;98419.01;;;15.38;88.01
54554;BME280;40450;55.848;-3.572;2022-10-04T13:50:25;98413.81;;;15.55;87.39
54554;BME280;40450;55.848;-3.572;2022-10-04T13:52:52;98411.03;;;16.12;85.39
54554;BME280;40450;55.848;-3.572;2022-10-04T13:55:25;98441.77;;;15.34;87.82
54554;BME280;40450;55.848;-3.572;2022-10-04T13:57:51;98441.11;;;14.39;89.09
54554;BME280;40450;55.848;-3.572;2022-10-04T14:15:28;98453.06;;;14.32;88.59
54554;BME280;40450;55.848;-3.572;2022-10-04T14:30:23;98430.79;;;15.64;85.10
54554;BME280;40450;55.848;-3.572;2022-10-04T14:33:03;98414.57;;;16.15;83.18
54554;BME280;40450;55.848;-3.572;2022-10-04T14:35:26;98406.37;;;16.46;82.50
54554;BME280;40450;55.848;-3.572;2022-10-04T14:45:35;98433.79;;;15.83;82.87
54554;BME280;40450;55.848;-3.572;2022-10-04T14:50:28;98447.54;;;15.63;83.21
54554;BME280;40450;55.848;-3.572;2022-10-04T14:53:07;98457.25;;;15.48;82.44
54554;BME280;40450;55.848;-3.572;2022-10-04T14:55:40;98465.50;;;15.40;82.87
54554;BME280;40450;55.848;-3.572;2022-10-04T14:58:10;98475.60;;;13.46;88.35
54554;BME280;40450;55.848;-3.572;2022-10-04T15:00:32;98468.80;;;14.24;85.96
54554;BME280;40450;55.848;-3.572;2022-10-04T15:05:40;98473.70;;;15.44;83.19
54554;BME280;40450;55.848;-3.572;2022-10-04T15:10:29;98461.86;;;15.55;81.38
54554;BME280;40450;55.848;-3.572;2022-10-04T15:13:01;98468.46;;;14.68;84.00
54554;BME280;40450;55.848;-3.572;2022-10-04T15:18:02;98474.93;;;14.69;84.29
54554;BME280;40450;55.848;-3.572;2022-10-04T15:20:33;98475.05;;;15.01;83.34
54554;BME280;40450;55.848;-3.572;2022-10-04T15:23:08;98470.26;;;15.68;80.62
54554;BME280;40450;55.848;-3.572;2022-10-04T15:25:35;98470.31;;;15.27;81.77
54554;BME280;40450;55.848;-3.572;2022-10-04T15:28:03;98460.88;;;14.16;82.59
54554;BME280;40450;55.848;-3.572;2022-10-04T15:30:35;98451.81;;;15.79;79.73
54554;BME280;40450;55.848;-3.572;2022-10-04T15:33:07;98442.48;;;16.21;78.60
54554;BME280;40450;55.848;-3.572;2022-10-04T15:35:37;98448.63;;;16.38;78.17
54554;BME280;40450;55.848;-3.572;2022-10-04T15:38:12;98446.84;;;16.11;78.44
54554;BME280;40450;55.848;-3.572;2022-10-04T15:40:36;98445.48;;;15.84;78.44
54554;BME280;40450;55.848;-3.572;2022-10-04T15:48:15;98444.62;;;16.56;76.96
54554;BME280;40450;55.848;-3.572;2022-10-04T15:50:34;98451.08;;;16.39;76.60
54554;BME280;40450;55.848;-3.572;2022-10-04T15:53:15;98449.97;;;15.88;76.99
54554;BME280;40450;55.848;-3.572;2022-10-04T15:58:18;98457.05;;;15.82;76.66
54554;BME280;40450;55.848;-3.572;2022-10-04T16:00:44;98450.82;;;16.31;76.33
54554;BME280;40450;55.848;-3.572;2022-10-04T16:03:14;98459.31;;;16.56;75.94